Time;durP1;ratioP1;P1;durP2;ratioP2;P2;SDS_P1;SDS_P2;PMS_P1;PMS_P2;Temp;Humidity;BMP_temperature;BMP_pressure;BME280_temperature;BME280_humidity;BME280_pressure;Samples;Min_cycle;Max_cycle;Signal;HPM_P1;HPM_P2
2021/06/30 06:20:02;;;;;;;;;;;;;;;;;;;;;
2021/06/30 07:01:15;;;;;;;;;5.33;3.67;;;;;16.20;69.05;101245.78;6001120;23;45199;-90
2021/06/30 11:55:34;;;;;;;;;9.33;9.00;;;;;19.19;60.79;101307.84;6108004;23;45794;-91
2021/06/30 12:01:31;;;;;;;;;10.33;10.00;;;;;19.42;60.06;101311.69;5956177;23;45472;-91
2021/06/30 12:04:36;;;;;;;;;9.00;8.67;;;;;19.45;59.45;101323.81;5968663;23;46943;-90
2021/06/30 12:07:33;;;;;;;;;;;;;;;;;;;;;
2021/06/30 12:10:15;;;;;;;;;;;;;;;;;;;;;
2021/06/30 12:13:12;;;;;;;;;;;;;;;;;;;;;
2021/06/30 12:15:46;;;;;;;;;11.00;10.00;;;;;19.18;58.90;101329.91;6061479;23;75133;-91
2021/06/30 12:18:25;;;;;;;;;12.75;12.00;;;;;19.08;58.77;101330.47;6062351;23;45210;-92
2021/06/30 12:20:57;;;;;;;;;11.25;9.75;;;;;19.03;59.23;101337.84;6063288;23;45452;-91
2021/06/30 12:23:28;;;;;;;;;12.00;11.50;;;;;19.03;58.81;101342.25;6062364;23;45458;-91
2021/06/30 12:26:16;;;;;;;;;13.00;9.50;;;;;19.05;59.46;101335.97;5914889;24;46764;-90
2021/06/30 12:29:12;;;;;;;;;9.00;9.00;;;;;19.17;59.31;101346.69;6007281;23;45247;-92
2021/06/30 12:32:33;;;;;;;;;11.50;10.25;;;;;19.32;58.39;101351.00;6062450;23;45161;-91
2021/06/30 12:35:21;;;;;;;;;13.67;11.67;;;;;19.35;58.17;101344.69;5976423;23;45282;-91
2021/06/30 12:38:20;;;;;;;;;;;;;;;;;;;;;
2021/06/30 12:40:54;;;;;;;;;12.75;11.50;;;;;19.42;58.34;101347.75;6032838;23;71539;-91
2021/06/30 12:43:50;;;;;;;;;8.75;7.50;;;;;19.49;58.42;101351.72;6009232;23;45606;-91
2021/06/30 12:47:05;;;;;;;;;;;;;;;;;;;;;
2021/06/30 12:50:01;;;;;;;;;9.67;9.67;;;;;19.41;58.50;101360.13;6032214;23;75144;-92
2021/06/30 12:52:53;;;;;;;;;10.25;10.25;;;;;19.35;58.60;101361.34;6033519;23;44912;-91
2021/06/30 12:55:58;;;;;;;;;;;;;;;;;;;;;
2021/06/30 12:58:43;;;;;;;;;10.33;10.33;;;;;19.20;58.14;101367.59;6032504;23;64967;-92
2021/06/30 13:02:08;;;;;;;;;;;;;;;;;;;;;
2021/06/30 13:04:37;;;;;;;;;9.75;9.75;;;;;19.00;58.39;101363.53;6001494;23;45322;-91
2021/06/30 13:07:29;;;;;;;;;13.25;11.25;;;;;18.88;57.99;101363.34;5981327;23;45300;-91
2021/06/30 13:10:28;;;;;;;;;;;;;;;;;;;;;
2021/06/30 13:13:31;;;;;;;;;13.00;11.00;;;;;18.74;58.28;101364.19;5970523;23;73798;-91
2021/06/30 13:16:28;;;;;;;;;10.50;10.25;;;;;18.67;58.53;101366.38;6032858;23;45330;-92
2021/06/30 13:19:02;;;;;;;;;12.25;11.00;;;;;18.65;58.41;101372.66;6033914;23;45393;-90
2021/06/30 13:21:32;;;;;;;;;12.00;10.50;;;;;18.59;58.51;101370.38;6033837;23;45580;-91
2021/06/30 13:24:15;;;;;;;;;11.25;9.00;;;;;18.53;58.40;101367.19;6033312;23;47810;-89
2021/06/30 13:35:20;;;;;;;;;11.50;10.00;;;;;18.52;58.74;101380.47;5917099;24;45804;-90
2021/06/30 13:37:50;;;;;;;;;7.50;7.25;;;;;18.52;58.54;101380.47;5917459;23;45467;-90
2021/06/30 13:40:23;;;;;;;;;9.75;8.75;;;;;18.59;59.15;101383.56;5915848;24;45480;-92
2021/06/30 13:42:57;;;;;;;;;8.75;8.00;;;;;18.58;58.51;101371.31;5916905;24;45413;-91
2021/06/30 13:45:31;;;;;;;;;9.00;8.67;;;;;18.63;58.86;101380.66;5916551;24;47058;-91
2021/06/30 13:48:16;;;;;;;;;11.00;9.00;;;;;18.69;59.28;101384.69;5917110;24;45758;-91
2021/06/30 13:50:58;;;;;;;;;9.75;9.25;;;;;18.76;58.89;101374.66;5916620;24;45353;-91
2021/06/30 13:53:48;;;;;;;;;10.50;10.00;;;;;18.82;58.75;101380.41;5974337;23;45263;-92
2021/06/30 13:56:15;;;;;;;;;11.25;10.75;;;;;18.93;58.74;101386.81;5976526;23;47370;-90
2021/06/30 13:58:44;;;;;;;;;10.50;10.50;;;;;18.99;58.42;101380.31;5977194;23;45618;-90
2021/06/30 14:01:11;;;;;;;;;7.50;7.50;;;;;19.04;58.30;101389.66;5978081;23;45226;-91
2021/06/30 14:03:36;;;;;;;;;10.75;9.75;;;;;19.06;58.43;101387.78;6002334;23;45443;-89
2021/06/30 14:06:07;;;;;;;;;11.50;8.50;;;;;19.13;58.31;101390.88;5976817;23;48049;-90
2021/06/30 14:08:33;;;;;;;;;13.25;10.25;;;;;19.19;58.31;101395.78;6001388;23;45191;-90
2021/06/30 14:11:06;;;;;;;;;9.25;9.00;;;;;19.19;57.61;101387.00;6001135;23;45331;-91
2021/06/30 14:13:38;;;;;;;;;10.00;9.50;;;;;19.20;57.44;101389.56;5977291;23;45223;-90
2021/06/30 14:16:06;;;;;;;;;7.75;7.75;;;;;19.22;57.31;101392.94;6000754;23;46947;-91
2021/06/30 14:18:44;;;;;;;;;6.33;6.00;;;;;19.23;56.83;101397.28;5976261;23;45285;-91
2021/06/30 14:21:34;;;;;;;;;12.00;8.00;;;;;19.23;56.72;101399.94;5977782;23;45337;-91
2021/06/30 14:24:02;;;;;;;;;6.50;6.50;;;;;19.20;56.70;101401.88;5977571;23;45504;-90
2021/06/30 14:26:29;;;;;;;;;10.33;8.00;;;;;19.18;56.86;101409.91;6000180;23;47344;-91
2021/06/30 14:29:03;;;;;;;;;8.75;8.00;;;;;19.11;56.35;101395.38;5977296;23;45253;-90
2021/06/30 14:31:33;;;;;;;;;8.00;8.00;;;;;19.06;56.20;101408.00;5977777;23;45231;-91
2021/06/30 14:34:01;;;;;;;;;7.25;7.25;;;;;19.02;56.19;101402.06;5977323;23;45379;-91
2021/06/30 14:36:27;;;;;;;;;7.00;5.75;;;;;19.02;56.26;101407.31;5979246;23;46912;-91
2021/06/30 14:38:52;;;;;;;;;10.25;9.00;;;;;18.99;55.91;101404.91;6001021;23;45246;-91
2021/06/30 14:41:18;;;;;;;;;7.00;6.75;;;;;18.94;56.18;101402.50;5977819;23;45430;-90
2021/06/30 14:43:44;;;;;;;;;8.00;8.00;;;;;18.95;56.60;101417.44;5977872;23;45369;-90
2021/06/30 14:46:09;;;;;;;;;10.00;9.00;;;;;18.97;56.75;101412.03;5977916;23;46780;-90
2021/06/30 14:48:36;;;;;;;;;9.00;8.67;;;;;18.95;56.91;101406.88;6000114;23;45365;-91
2021/06/30 14:51:04;;;;;;;;;7.00;7.00;;;;;18.98;56.78;101413.72;6001263;23;45348;-90
2021/06/30 14:53:30;;;;;;;;;9.33;9.33;;;;;18.98;56.67;101410.25;5977937;23;45456;-90
2021/06/30 14:55:58;;;;;;;;;7.33;7.33;;;;;18.94;56.56;101406.97;5976802;23;47308;-90
2021/06/30 14:58:28;;;;;;;;;10.50;8.25;;;;;18.94;57.16;101414.88;5976050;23;45297;-91
2021/06/30 15:00:57;;;;;;;;;11.50;7.75;;;;;18.90;56.95;101408.94;5977321;23;45306;-91
2021/06/30 15:03:28;;;;;;;;;8.00;7.00;;;;;18.87;57.08;101417.03;6003122;23;45382;-91
2021/06/30 15:05:54;;;;;;;;;10.00;8.50;;;;;18.79;56.98;101409.56;5999902;23;47159;-90
2021/06/30 15:08:20;;;;;;;;;10.33;9.00;;;;;18.77;57.55;101415.88;5979827;23;45904;-91
2021/06/30 15:10:45;;;;;;;;;8.50;8.50;;;;;18.75;57.33;101409.88;6002521;23;45332;-91
2021/06/30 15:13:43;;;;;;;;;10.33;9.33;;;;;18.71;57.76;101406.56;5977274;23;45392;-90
2021/06/30 15:16:26;;;;;;;;;9.25;9.00;;;;;18.70;58.07;101408.34;6090351;23;46781;-90
2021/06/30 15:23:11;;;;;;;;;;;;;;;;;;;;;
2021/06/30 15:26:44;;;;;;;;;;;;;;;;;;;;;
2021/06/30 15:30:11;;;;;;;;;10.67;10.67;;;;;18.75;59.29;101408.06;6001930;23;74735;-89
2021/06/30 15:40:06;;;;;;;;;11.00;11.00;;;;;18.87;59.73;101418.81;5810791;24;45576;-91
2021/06/30 15:42:54;;;;;;;;;11.67;10.67;;;;;18.88;59.86;101415.25;5756743;24;46912;-91
2021/06/30 15:45:52;;;;;;;;;;;;;;;;;;;;;
2021/06/30 15:48:20;;;;;;;;;12.33;9.33;;;;;18.90;59.71;101411.56;5728615;24;67021;-91
2021/06/30 15:50:59;;;;;;;;;11.67;10.00;;;;;18.89;60.09;101406.38;5729369;24;45530;-91
2021/06/30 15:53:33;;;;;;;;;11.00;9.00;;;;;18.90;60.01;101411.56;5729507;24;47181;-89
2021/06/30 15:56:11;;;;;;;;;12.67;10.33;;;;;18.90;60.51;101413.34;5730454;24;45609;-90
2021/06/30 15:58:56;;;;;;;;;14.33;12.33;;;;;18.90;60.30;101411.56;5779358;24;45393;-90
2021/06/30 16:01:43;;;;;;;;;8.67;8.67;;;;;18.89;59.79;101398.47;5808196;24;45537;-90
2021/06/30 16:04:09;;;;;;;;;9.00;9.00;;;;;18.90;59.90;101403.66;5707619;24;47834;-90
2021/06/30 16:06:36;;;;;;;;;8.33;8.00;;;;;18.97;60.00;101404.13;5727183;24;45388;-90
2021/06/30 16:09:09;;;;;;;;;11.33;11.00;;;;;19.02;60.06;101403.84;5739995;24;45415;-91
2021/06/30 16:11:38;;;;;;;;;12.33;11.33;;;;;19.05;60.02;101407.19;5806227;23;45751;-90
2021/06/30 16:14:05;;;;;;;;;10.33;9.67;;;;;19.14;60.16;101410.19;5849978;23;47153;-90
2021/06/30 16:16:34;;;;;;;;;11.00;11.00;;;;;19.20;59.78;101417.72;5876766;23;45357;-91
2021/06/30 16:19:14;;;;;;;;;10.00;8.67;;;;;19.22;59.67;101411.41;5964253;23;45287;-90
2021/06/30 16:21:48;;;;;;;;;10.00;10.00;;;;;19.24;59.48;101421.88;6000416;23;45265;-90
2021/06/30 16:24:16;;;;;;;;;9.00;9.00;;;;;19.26;59.54;101420.00;5996443;23;47161;-91
2021/06/30 16:26:50;;;;;;;;;11.67;11.00;;;;;19.24;59.74;101403.41;5976304;23;45186;-90
2021/06/30 16:29:21;;;;;;;;;8.67;7.67;;;;;19.28;59.63;101412.81;5976267;23;45433;-90
2021/06/30 16:31:51;;;;;;;;;7.67;7.67;;;;;19.29;59.37;101414.50;6001383;23;45822;-92
2021/06/30 16:34:42;;;;;;;;;8.67;8.67;;;;;19.25;59.09;101402.44;5998773;23;47140;-90
2021/06/30 16:37:15;;;;;;;;;10.00;10.00;;;;;19.25;59.67;101410.38;5975117;23;45390;-90
2021/06/30 16:39:42;;;;;;;;;9.00;8.67;;;;;19.19;59.14;101402.84;5975815;23;45453;-90
2021/06/30 16:42:08;;;;;;;;;8.00;8.00;;;;;19.16;59.09;101403.88;5977098;23;44996;-90
2021/06/30 16:44:47;;;;;;;;;10.00;10.00;;;;;19.18;59.17;101414.34;5975230;23;45719;-91
2021/06/30 16:47:16;;;;;;;;;8.00;7.67;;;;;19.12;59.38;101404.16;5975300;23;45325;-91
2021/06/30 16:49:44;;;;;;;;;9.67;9.00;;;;;19.05;59.47;101407.19;5977853;23;45444;-90
2021/06/30 16:52:19;;;;;;;;;11.33;10.67;;;;;19.04;59.50;101416.03;5976784;23;45661;-91
2021/06/30 16:54:45;;;;;;;;;12.00;12.00;;;;;18.97;59.38;101401.47;5999399;23;47017;-90
2021/06/30 16:57:14;;;;;;;;;10.00;10.00;;;;;18.99;59.65;101412.81;5977856;23;45443;-89
2021/06/30 16:59:43;;;;;;;;;9.00;8.33;;;;;18.97;59.65;101409.41;5976095;23;45257;-90
2021/06/30 17:02:50;;;;;;;;;9.00;9.00;;;;;18.95;59.76;101422.69;6000881;23;45501;-91
2021/06/30 17:05:16;;;;;;;;;12.33;10.33;;;;;18.94;59.71;101417.50;6000512;23;47540;-90
2021/06/30 17:07:41;;;;;;;;;10.00;8.67;;;;;18.96;59.77;101420.88;6003037;23;45234;-90
2021/06/30 17:10:09;;;;;;;;;13.00;9.33;;;;;18.91;59.81;101409.78;6001620;23;45251;-90
2021/06/30 17:12:39;;;;;;;;;11.00;11.00;;;;;18.91;59.92;101421.19;5978345;23;45484;-89
2021/06/30 17:15:07;;;;;;;;;9.00;9.00;;;;;18.88;59.89;101416.06;6001062;23;45877;-90
2021/06/30 17:17:35;;;;;;;;;10.00;8.00;;;;;18.85;59.57;101405.72;5974510;23;45300;-90
2021/06/30 17:20:00;;;;;;;;;9.67;9.67;;;;;18.85;59.67;101413.66;5974334;23;45237;-90
2021/06/30 17:22:26;;;;;;;;;10.33;10.33;;;;;18.79;59.52;101409.56;5977828;23;45297;-89
2021/06/30 17:24:52;;;;;;;;;9.33;8.00;;;;;18.75;59.29;101408.06;6002800;23;46469;-89
2021/06/30 17:27:17;;;;;;;;;7.33;7.33;;;;;18.75;58.84;101407.22;5977410;23;45415;-89
2021/06/30 17:29:43;;;;;;;;;7.33;7.33;;;;;18.74;59.48;101418.72;5977651;23;45702;-89
2021/06/30 17:32:10;;;;;;;;;8.67;7.33;;;;;18.72;59.29;101417.94;6002711;23;45462;-90
2021/06/30 17:34:36;;;;;;;;;10.00;9.00;;;;;18.71;59.35;101414.47;5976497;23;47190;-90
2021/06/30 17:37:01;;;;;;;;;10.00;10.00;;;;;18.65;59.17;101413.03;6002902;23;45353;-89
2021/06/30 17:39:27;;;;;;;;;7.67;7.33;;;;;18.61;59.64;101408.06;5977644;23;45294;-90
2021/06/30 17:41:52;;;;;;;;;10.00;7.67;;;;;18.65;59.56;101420.13;6000838;23;45262;-90
2021/06/30 17:44:20;;;;;;;;;8.33;8.00;;;;;18.62;59.07;101417.66;6000856;23;46700;-89
2021/06/30 17:46:46;;;;;;;;;7.67;7.67;;;;;18.58;59.18;101410.84;6002225;23;45409;-89
2021/06/30 17:49:17;;;;;;;;;8.00;7.33;;;;;18.58;59.48;101411.72;5977309;23;45373;-89
2021/06/30 17:51:43;;;;;;;;;8.33;6.67;;;;;18.59;59.21;101402.00;6003091;23;45266;-90
2021/06/30 17:54:10;;;;;;;;;10.00;9.00;;;;;18.58;59.30;101408.22;5977348;23;46998;-89
2021/06/30 17:56:53;;;;;;;;;10.67;9.33;;;;;18.60;59.10;101412.47;5976819;23;45406;-90
2021/06/30 17:59:27;;;;;;;;;7.00;7.00;;;;;18.59;59.40;101408.13;6002426;23;45454;-89
2021/06/30 18:01:56;;;;;;;;;9.00;8.67;;;;;18.60;59.17;101414.28;5977242;23;45609;-89
2021/06/30 18:04:22;;;;;;;;;8.00;7.00;;;;;18.60;59.08;101417.72;5974047;23;47278;-90
2021/06/30 18:06:48;;;;;;;;;7.00;7.00;;;;;18.57;59.07;101412.66;5973818;23;45353;-88
2021/06/30 18:09:13;;;;;;;;;10.00;10.00;;;;;18.52;59.21;101409.44;5975155;23;45480;-91
2021/06/30 18:11:39;;;;;;;;;7.67;6.67;;;;;18.54;59.35;101426.00;6000991;23;45274;-90
2021/06/30 18:14:07;;;;;;;;;9.00;8.00;;;;;18.52;59.52;101434.00;5975423;23;47228;-90
2021/06/30 18:16:32;;;;;;;;;9.00;8.00;;;;;18.50;59.71;101430.63;5973336;23;45361;-89
2021/06/30 18:18:58;;;;;;;;;10.00;7.00;;;;;18.45;59.05;101432.66;5996574;23;45586;-90
2021/06/30 18:21:24;;;;;;;;;10.00;10.00;;;;;18.51;59.51;101436.75;5974951;23;45366;-90
2021/06/30 18:23:49;;;;;;;;;8.33;7.67;;;;;18.49;59.32;101431.56;5975374;23;46960;-90
2021/06/30 18:26:17;;;;;;;;;9.67;9.33;;;;;18.50;59.65;101424.47;5966162;23;45577;-89
2021/06/30 18:28:43;;;;;;;;;9.00;6.33;;;;;18.47;59.99;101432.59;5973800;23;45549;-92
2021/06/30 18:31:08;;;;;;;;;8.33;7.67;;;;;18.43;59.93;101422.22;5974210;23;45383;-89
2021/06/30 18:33:34;;;;;;;;;8.00;7.00;;;;;18.43;59.91;101424.00;5975829;23;47964;-90
2021/06/30 18:36:02;;;;;;;;;8.33;8.33;;;;;18.46;60.13;101426.47;5975500;23;45456;-89
2021/06/30 18:38:29;;;;;;;;;9.33;8.00;;;;;18.46;60.12;101428.25;5997730;23;45556;-89
2021/06/30 18:40:54;;;;;;;;;9.33;8.33;;;;;18.43;60.44;101426.66;6000844;23;45290;-89
2021/06/30 18:43:20;;;;;;;;;11.67;10.33;;;;;18.45;60.08;101424.75;5975922;23;47245;-89
2021/06/30 18:45:45;;;;;;;;;9.33;9.33;;;;;18.41;59.79;101425.88;5999268;23;45480;-88
2021/06/30 18:48:11;;;;;;;;;11.00;9.00;;;;;18.45;60.26;101435.31;5974067;23;45459;-90
2021/06/30 18:50:38;;;;;;;;;10.33;9.67;;;;;18.42;60.09;101424.94;5976132;23;45824;-90
2021/06/30 18:53:03;;;;;;;;;7.00;6.67;;;;;18.42;60.17;101425.78;5974306;23;47785;-89
2021/06/30 18:58:57;;;;;;;;;11.00;7.33;;;;;18.42;59.95;101428.44;5997916;23;46085;-90
2021/06/30 19:01:53;;;;;;;;;13.00;11.00;;;;;18.40;60.12;101432.94;5884936;23;45511;-90
2021/06/30 19:07:45;;;;;;;;;9.33;8.00;;;;;18.41;60.22;101436.41;5886027;23;45521;-93
2021/06/30 19:13:46;;;;;;;;;9.00;9.00;;;;;18.35;60.24;101448.16;5858550;24;45481;-91
2021/06/30 19:16:47;;;;;;;;;;;;;;;;;;;;;
2021/06/30 19:19:30;;;;;;;;;8.33;7.00;;;;;18.26;60.33;101451.31;5829752;23;71460;-90
2021/06/30 19:22:26;;;;;;;;;9.67;8.67;;;;;18.22;60.18;101445.38;5859136;24;44810;-90
2021/06/30 19:25:08;;;;;;;;;;;;;;;;;;;;;
2021/06/30 19:28:09;;;;;;;;;9.00;9.00;;;;;18.18;60.44;101445.66;5855874;24;73696;-90
2021/06/30 19:31:11;;;;;;;;;;;;;;;;;;;;;
2021/06/30 19:33:40;;;;;;;;;9.33;7.67;;;;;18.18;59.93;101454.41;5861667;24;69504;-90
2021/06/30 19:36:15;;;;;;;;;11.00;9.33;;;;;18.18;60.10;101454.41;5841023;24;46109;-90
2021/06/30 19:38:57;;;;;;;;;;;;;;;;;;;;;
2021/06/30 19:41:58;;;;;;;;;10.25;8.25;;;;;18.11;60.22;101460.97;5781583;24;72186;-91
2021/06/30 19:44:31;;;;;;;;;9.00;8.33;;;;;18.12;60.79;101473.19;5816093;24;45586;-90
2021/06/30 19:47:16;;;;;;;;;;;;;;;;;;;;;
2021/06/30 19:50:31;;;;;;;;;10.00;8.75;;;;;18.09;60.46;101481.28;5878829;24;74095;-90
2021/06/30 19:53:09;;;;;;;;;8.67;8.00;;;;;18.06;60.57;101468.22;5861163;24;45369;-89
2021/06/30 19:55:50;;;;;;;;;9.00;9.00;;;;;18.07;60.23;101481.34;5899886;23;45298;-90
2021/06/30 19:58:51;;;;;;;;;7.67;7.67;;;;;18.07;60.61;101483.13;5936716;23;45411;-90
2021/06/30 20:01:49;;;;;;;;;8.00;8.00;;;;;18.04;60.55;101489.38;5938841;23;47037;-90
2021/06/30 20:04:39;;;;;;;;;6.67;6.67;;;;;18.01;60.45;101497.47;5918618;23;45573;-90
2021/06/30 20:07:39;;;;;;;;;9.00;6.67;;;;;17.98;60.69;101506.38;5940764;23;45488;-90
2021/06/30 20:10:27;;;;;;;;;;;;;;;;;;;;;
2021/06/30 20:13:37;;;;;;;;;7.33;7.33;;;;;17.94;60.53;101520.66;5999714;23;75024;-90
2021/06/30 20:23:47;;;;;;;;;6.33;6.00;;;;;17.82;60.64;101513.44;6031980;23;45264;-91
2021/06/30 20:26:39;;;;;;;;;;;;;;;;;;;;;
2021/06/30 20:32:51;;;;;;;;;;;;;;;;;;;;;
2021/06/30 20:35:54;;;;;;;;;8.33;7.00;;;;;17.73;61.11;101523.50;6030455;23;64913;-90
2021/06/30 20:38:55;;;;;;;;;;;;;;;;;;;;;
2021/06/30 20:42:17;;;;;;;;;;;;;;;;;;;;;
2021/06/30 20:44:57;;;;;;;;;6.67;6.67;;;;;17.62;61.40;101539.88;5916206;23;67885;-90
2021/06/30 20:47:49;;;;;;;;;;;;;;;;;;;;;
2021/06/30 20:51:03;;;;;;;;;7.33;7.33;;;;;17.52;61.55;101527.28;5917141;24;73469;-90
2021/06/30 20:54:01;;;;;;;;;;;;;;;;;;;;;
2021/06/30 20:59:43;;;;;;;;;;;;;;;;;;;;;
2021/06/30 21:02:41;;;;;;;;;;;;;;;;;;;;;
2021/06/30 21:05:23;;;;;;;;;;;;;;;;;;;;;
2021/06/30 21:07:57;;;;;;;;;9.00;8.00;;;;;17.43;61.55;101545.25;5806156;24;67530;-90
2021/06/30 21:10:55;;;;;;;;;;;;;;;;;;;;;
2021/06/30 21:13:51;;;;;;;;;8.50;8.00;;;;;17.43;61.83;101541.78;5861239;23;79590;-91
2021/06/30 21:17:06;;;;;;;;;;;;;;;;;;;;;
2021/06/30 21:19:35;;;;;;;;;8.00;8.00;;;;;17.44;62.24;101546.09;5860894;24;70311;-91
2021/06/30 21:22:38;;;;;;;;;;;;;;;;;;;;;
2021/06/30 21:28:17;;;;;;;;;8.00;8.00;;;;;17.40;62.48;101552.47;5834581;24;45464;-90
2021/06/30 21:31:17;;;;;;;;;8.33;7.33;;;;;17.36;62.01;101538.63;5834819;24;45368;-90
2021/06/30 21:37:12;;;;;;;;;11.33;10.33;;;;;17.35;62.13;101537.78;5948455;23;46068;-90
2021/06/30 21:39:45;;;;;;;;;10.67;8.33;;;;;17.32;62.62;101532.66;5923698;23;45421;-90
2021/06/30 21:42:38;;;;;;;;;;;;;;;;;;;;;
2021/06/30 21:45:45;;;;;;;;;8.33;7.00;;;;;17.33;62.58;101536.16;5947825;23;63557;-89
2021/06/30 21:48:34;;;;;;;;;9.33;9.33;;;;;17.32;62.62;101537.09;5947911;23;47724;-89
2021/06/30 21:51:27;;;;;;;;;9.00;9.00;;;;;17.31;62.41;101545.91;5947373;23;45526;-90
2021/06/30 21:54:20;;;;;;;;;7.33;7.33;;;;;17.27;62.45;101537.31;5925277;23;45387;-88
2021/06/30 21:56:57;;;;;;;;;9.00;9.00;;;;;17.30;62.64;101544.19;5948429;23;45354;-89
2021/06/30 22:00:02;;;;;;;;;;;;;;;;;;;;;
2021/06/30 22:03:04;;;;;;;;;;;;;;;;;;;;;
2021/06/30 22:05:45;;;;;;;;;12.33;9.67;;;;;17.24;62.47;101550.63;5944018;23;67458;-90
2021/06/30 22:08:46;;;;;;;;;8.33;8.00;;;;;17.23;62.65;101546.31;5952829;23;45487;-89
2021/06/30 22:14:36;;;;;;;;;11.00;10.00;;;;;17.20;62.33;101549.06;6032331;23;45204;-89
2021/06/30 22:17:33;;;;;;;;;11.67;10.67;;;;;17.20;62.43;101546.44;6008951;23;45459;-90
2021/06/30 22:20:23;;;;;;;;;;;;;;;;;;;;;
2021/06/30 22:26:13;;;;;;;;;12.75;10.25;;;;;17.17;62.54;101544.81;5947560;23;45245;-90
2021/06/30 22:28:59;;;;;;;;;10.50;9.50;;;;;17.16;62.89;101544.91;5925494;23;45378;-90
2021/06/30 22:31:32;;;;;;;;;10.00;10.00;;;;;17.15;62.63;101545.81;5924622;23;45532;-90
2021/06/30 22:34:16;;;;;;;;;;;;;;;;;;;;;
2021/06/30 22:36:51;;;;;;;;;8.00;7.67;;;;;17.12;62.54;101552.09;5947282;23;73282;-90
2021/06/30 22:39:42;;;;;;;;;9.00;9.00;;;;;17.08;63.20;101546.16;5925037;23;45318;-90
2021/06/30 22:42:42;;;;;;;;;8.33;8.00;;;;;17.09;62.75;101550.47;5920249;24;45392;-90
2021/06/30 22:48:38;;;;;;;;;;;;;;;;;;;;;
2021/06/30 22:54:44;;;;;;;;;8.33;7.00;;;;;17.03;62.95;101556.03;5865727;24;45421;-89
2021/06/30 23:00:07;;;;;;;;;8.50;7.00;;;;;17.00;62.52;101557.94;5758306;24;45626;-90
2021/06/30 23:02:52;;;;;;;;;7.00;7.00;;;;;17.00;62.23;101568.47;5753907;24;45243;-90
2021/06/30 23:05:46;;;;;;;;;5.33;5.00;;;;;17.00;61.95;101568.47;5758358;24;45619;-90
2021/06/30 23:08:22;;;;;;;;;6.33;6.00;;;;;16.99;62.61;101564.97;5758630;24;47013;-90
2021/06/30 23:11:06;;;;;;;;;;;;;;;;;;;;;
2021/06/30 23:13:48;;;;;;;;;10.33;7.33;;;;;17.00;62.14;101565.84;5758233;24;67390;-90
2021/06/30 23:16:29;;;;;;;;;6.67;5.00;;;;;16.99;62.31;101564.97;5759013;24;45438;-90
2021/06/30 23:19:09;;;;;;;;;7.00;7.00;;;;;17.00;62.13;101564.06;5793453;24;46861;-90
2021/06/30 23:21:53;;;;;;;;;;;;;;;;;;;;;
2021/06/30 23:24:33;;;;;;;;;4.00;4.00;;;;;17.02;62.27;101564.81;5837440;24;67120;-89
2021/06/30 23:27:16;;;;;;;;;7.33;7.33;;;;;17.01;62.20;101564.91;5860472;24;45378;-89
2021/06/30 23:30:06;;;;;;;;;7.75;6.75;;;;;17.01;62.01;101563.13;5838420;24;48072;-90
2021/06/30 23:32:42;;;;;;;;;8.00;6.33;;;;;17.02;62.25;101558.72;5837710;24;45498;-91
2021/06/30 23:35:40;;;;;;;;;7.33;6.33;;;;;17.02;62.18;101561.34;5988537;23;45450;-89
2021/06/30 23:38:15;;;;;;;;;6.00;6.00;;;;;17.02;62.40;101553.44;5920039;23;45429;-91
2021/06/30 23:41:06;;;;;;;;;5.67;4.67;;;;;17.02;62.16;101553.44;5911022;24;46734;-89
2021/06/30 23:43:56;;;;;;;;;6.67;5.67;;;;;17.02;62.12;101550.81;5890226;23;45572;-90
2021/06/30 23:47:06;;;;;;;;;9.00;7.33;;;;;16.99;62.06;101554.44;5871400;23;45416;-89
2021/06/30 23:49:33;;;;;;;;;8.33;7.00;;;;;16.97;62.26;101545.81;5892258;23;45537;-90
2021/06/30 23:52:15;;;;;;;;;9.33;6.00;;;;;17.01;62.21;101554.38;5868998;23;47000;-90
2021/06/30 23:55:01;;;;;;;;;7.00;5.00;;;;;17.01;62.01;101547.34;5917045;23;45468;-90
2021/06/30 23:57:57;;;;;;;;;5.67;5.33;;;;;17.01;61.93;101544.72;5911866;23;45240;-90
